sensor_id;sensor_type;location;lat;lon;timestamp;temperature;humidity
13354;DHT22;6746;50.892;4.064;2023-03-14T00:01:34;10.60;99.90
13354;DHT22;6746;50.892;4.064;2023-03-14T00:04:12;10.60;99.90
13354;DHT22;6746;50.892;4.064;2023-03-14T00:06:50;10.60;99.90
13354;DHT22;6746;50.892;4.064;2023-03-14T00:09:40;10.60;99.90
13354;DHT22;6746;50.892;4.064;2023-03-14T00:12:19;10.60;99.90
13354;DHT22;6746;50.892;4.064;2023-03-14T00:15:00;10.60;99.90
13354;DHT22;6746;50.892;4.064;2023-03-14T00:17:42;10.60;99.90
13354;DHT22;6746;50.892;4.064;2023-03-14T00:20:19;10.70;99.90
13354;DHT22;6746;50.892;4.064;2023-03-14T00:23:07;10.70;99.90
13354;DHT22;6746;50.892;4.064;2023-03-14T00:25:48;10.70;99.90
13354;DHT22;6746;50.892;4.064;2023-03-14T00:28:26;10.70;99.90
13354;DHT22;6746;50.892;4.064;2023-03-14T00:31:08;10.80;99.90
13354;DHT22;6746;50.892;4.064;2023-03-14T00:33:45;10.80;99.90
13354;DHT22;6746;50.892;4.064;2023-03-14T00:36:28;10.80;99.90
13354;DHT22;6746;50.892;4.064;2023-03-14T00:39:06;10.70;99.90
13354;DHT22;6746;50.892;4.064;2023-03-14T00:41:47;10.60;99.90
13354;DHT22;6746;50.892;4.064;2023-03-14T00:44:25;10.60;99.90
13354;DHT22;6746;50.892;4.064;2023-03-14T00:47:04;10.50;99.90
13354;DHT22;6746;50.892;4.064;2023-03-14T00:49:42;10.50;99.90
13354;DHT22;6746;50.892;4.064;2023-03-14T00:52:21;10.40;99.90
13354;DHT22;6746;50.892;4.064;2023-03-14T00:55:00;10.30;99.90
13354;DHT22;6746;50.892;4.064;2023-03-14T00:57:38;10.30;99.90
13354;DHT22;6746;50.892;4.064;2023-03-14T01:00:16;10.20;99.90
13354;DHT22;6746;50.892;4.064;2023-03-14T01:03:00;10.20;99.90
13354;DHT22;6746;50.892;4.064;2023-03-14T01:05:35;10.10;99.90
13354;DHT22;6746;50.892;4.064;2023-03-14T01:08:16;10.10;99.90
13354;DHT22;6746;50.892;4.064;2023-03-14T01:10:54;10.10;99.90
13354;DHT22;6746;50.892;4.064;2023-03-14T01:13:42;10.20;99.90
13354;DHT22;6746;50.892;4.064;2023-03-14T01:16:32;10.10;99.90
13354;DHT22;6746;50.892;4.064;2023-03-14T01:19:18;10.10;99.90
13354;DHT22;6746;50.892;4.064;2023-03-14T01:21:57;10.10;99.90
13354;DHT22;6746;50.892;4.064;2023-03-14T01:24:36;10.10;99.90
13354;DHT22;6746;50.892;4.064;2023-03-14T01:27:18;10.10;99.90
13354;DHT22;6746;50.892;4.064;2023-03-14T01:29:56;10.10;99.90
13354;DHT22;6746;50.892;4.064;2023-03-14T01:32:37;10.20;99.90
13354;DHT22;6746;50.892;4.064;2023-03-14T01:35:15;10.20;99.90
13354;DHT22;6746;50.892;4.064;2023-03-14T01:37:54;10.20;99.90
13354;DHT22;6746;50.892;4.064;2023-03-14T01:40:32;10.20;99.90
13354;DHT22;6746;50.892;4.064;2023-03-14T01:43:16;10.30;99.90
13354;DHT22;6746;50.892;4.064;2023-03-14T01:52:06;10.30;99.90
13354;DHT22;6746;50.892;4.064;2023-03-14T01:54:55;10.30;99.90
13354;DHT22;6746;50.892;4.064;2023-03-14T01:57:37;10.30;99.90
13354;DHT22;6746;50.892;4.064;2023-03-14T02:00:22;10.20;99.90
13354;DHT22;6746;50.892;4.064;2023-03-14T02:03:05;10.20;99.90
13354;DHT22;6746;50.892;4.064;2023-03-14T02:05:47;10.10;99.90
13354;DHT22;6746;50.892;4.064;2023-03-14T02:08:25;10.10;99.90
13354;DHT22;6746;50.892;4.064;2023-03-14T02:11:03;10.20;99.90
13354;DHT22;6746;50.892;4.064;2023-03-14T02:13:42;10.10;99.90
13354;DHT22;6746;50.892;4.064;2023-03-14T02:16:23;10.10;99.90
13354;DHT22;6746;50.892;4.064;2023-03-14T02:19:01;10.10;99.90
13354;DHT22;6746;50.892;4.064;2023-03-14T02:22:01;10.10;99.90
13354;DHT22;6746;50.892;4.064;2023-03-14T02:24:56;10.20;99.90
13354;DHT22;6746;50.892;4.064;2023-03-14T02:27:32;10.20;99.90
13354;DHT22;6746;50.892;4.064;2023-03-14T02:30:21;10.20;99.90
13354;DHT22;6746;50.892;4.064;2023-03-14T02:33:15;10.10;99.90
13354;DHT22;6746;50.892;4.064;2023-03-14T02:36:00;10.10;99.90
13354;DHT22;6746;50.892;4.064;2023-03-14T02:38:50;10.00;99.90
13354;DHT22;6746;50.892;4.064;2023-03-14T02:41:35;9.90;99.90
13354;DHT22;6746;50.892;4.064;2023-03-14T02:44:23;9.90;99.90
13354;DHT22;6746;50.892;4.064;2023-03-14T02:47:10;9.90;99.90
13354;DHT22;6746;50.892;4.064;2023-03-14T02:49:49;9.90;99.90
13354;DHT22;6746;50.892;4.064;2023-03-14T02:52:37;9.90;99.90
13354;DHT22;6746;50.892;4.064;2023-03-14T02:55:25;9.90;99.90
13354;DHT22;6746;50.892;4.064;2023-03-14T02:58:11;9.80;99.90
13354;DHT22;6746;50.892;4.064;2023-03-14T03:00:50;9.80;99.90
13354;DHT22;6746;50.892;4.064;2023-03-14T03:03:38;9.80;99.90
13354;DHT22;6746;50.892;4.064;2023-03-14T03:06:16;9.80;99.90
13354;DHT22;6746;50.892;4.064;2023-03-14T03:08:54;9.80;99.90
13354;DHT22;6746;50.892;4.064;2023-03-14T03:11:32;9.80;99.90
13354;DHT22;6746;50.892;4.064;2023-03-14T03:14:11;9.80;99.90
13354;DHT22;6746;50.892;4.064;2023-03-14T03:16:49;9.80;99.90
13354;DHT22;6746;50.892;4.064;2023-03-14T03:19:27;9.80;99.90
13354;DHT22;6746;50.892;4.064;2023-03-14T03:22:15;9.90;99.90
13354;DHT22;6746;50.892;4.064;2023-03-14T03:24:54;9.80;99.90
13354;DHT22;6746;50.892;4.064;2023-03-14T03:27:33;9.90;99.90
13354;DHT22;6746;50.892;4.064;2023-03-14T03:30:11;9.90;99.90
13354;DHT22;6746;50.892;4.064;2023-03-14T03:32:49;9.90;99.90
13354;DHT22;6746;50.892;4.064;2023-03-14T03:35:41;9.90;99.90
13354;DHT22;6746;50.892;4.064;2023-03-14T03:38:14;9.90;99.90
13354;DHT22;6746;50.892;4.064;2023-03-14T03:40:55;9.90;99.90
13354;DHT22;6746;50.892;4.064;2023-03-14T03:43:33;9.90;99.90
13354;DHT22;6746;50.892;4.064;2023-03-14T03:46:14;10.00;99.90
13354;DHT22;6746;50.892;4.064;2023-03-14T03:48:55;10.00;99.90
13354;DHT22;6746;50.892;4.064;2023-03-14T03:51:33;10.00;99.90
13354;DHT22;6746;50.892;4.064;2023-03-14T03:54:11;10.10;99.90
13354;DHT22;6746;50.892;4.064;2023-03-14T03:56:59;10.00;99.90
13354;DHT22;6746;50.892;4.064;2023-03-14T03:59:37;10.00;99.90
13354;DHT22;6746;50.892;4.064;2023-03-14T04:02:15;10.10;99.90
13354;DHT22;6746;50.892;4.064;2023-03-14T04:04:56;10.10;99.90
13354;DHT22;6746;50.892;4.064;2023-03-14T04:07:34;10.10;99.90
13354;DHT22;6746;50.892;4.064;2023-03-14T04:10:15;10.10;99.90
13354;DHT22;6746;50.892;4.064;2023-03-14T04:12:54;10.10;99.90
13354;DHT22;6746;50.892;4.064;2023-03-14T04:15:41;10.10;99.90
13354;DHT22;6746;50.892;4.064;2023-03-14T04:18:20;10.10;99.90
13354;DHT22;6746;50.892;4.064;2023-03-14T04:20:58;10.20;99.90
13354;DHT22;6746;50.892;4.064;2023-03-14T04:23:36;10.20;99.90
13354;DHT22;6746;50.892;4.064;2023-03-14T04:26:15;10.30;99.90
13354;DHT22;6746;50.892;4.064;2023-03-14T04:28:56;10.30;99.90
13354;DHT22;6746;50.892;4.064;2023-03-14T04:31:34;10.30;99.90
13354;DHT22;6746;50.892;4.064;2023-03-14T04:34:14;10.30;99.90
13354;DHT22;6746;50.892;4.064;2023-03-14T04:36:53;10.20;99.90
13354;DHT22;6746;50.892;4.064;2023-03-14T04:39:34;10.20;99.90
13354;DHT22;6746;50.892;4.064;2023-03-14T04:42:12;10.20;99.90
13354;DHT22;6746;50.892;4.064;2023-03-14T04:44:50;10.20;99.90
13354;DHT22;6746;50.892;4.064;2023-03-14T04:47:28;10.10;99.90
13354;DHT22;6746;50.892;4.064;2023-03-14T04:50:12;10.10;99.90
13354;DHT22;6746;50.892;4.064;2023-03-14T04:52:50;10.10;99.90
13354;DHT22;6746;50.892;4.064;2023-03-14T04:55:38;10.10;99.90
13354;DHT22;6746;50.892;4.064;2023-03-14T04:58:17;10.10;99.90
13354;DHT22;6746;50.892;4.064;2023-03-14T05:00:55;10.10;99.90
13354;DHT22;6746;50.892;4.064;2023-03-14T05:03:43;10.10;99.90
13354;DHT22;6746;50.892;4.064;2023-03-14T05:06:24;10.10;99.90
13354;DHT22;6746;50.892;4.064;2023-03-14T05:09:03;10.10;99.90
13354;DHT22;6746;50.892;4.064;2023-03-14T05:11:48;10.10;99.90
13354;DHT22;6746;50.892;4.064;2023-03-14T05:14:27;10.10;99.90
13354;DHT22;6746;50.892;4.064;2023-03-14T05:17:15;10.10;99.90
13354;DHT22;6746;50.892;4.064;2023-03-14T05:20:03;10.20;99.90
13354;DHT22;6746;50.892;4.064;2023-03-14T05:22:47;10.20;99.90
13354;DHT22;6746;50.892;4.064;2023-03-14T05:25:25;10.20;99.90
13354;DHT22;6746;50.892;4.064;2023-03-14T05:28:03;10.20;99.90
13354;DHT22;6746;50.892;4.064;2023-03-14T05:30:42;10.20;99.90
13354;DHT22;6746;50.892;4.064;2023-03-14T05:33:28;10.20;99.90
13354;DHT22;6746;50.892;4.064;2023-03-14T05:36:07;10.20;99.90
13354;DHT22;6746;50.892;4.064;2023-03-14T05:38:55;10.20;99.90
13354;DHT22;6746;50.892;4.064;2023-03-14T05:41:33;10.20;99.90
13354;DHT22;6746;50.892;4.064;2023-03-14T05:44:11;10.20;99.90
13354;DHT22;6746;50.892;4.064;2023-03-14T05:46:49;10.20;99.90
13354;DHT22;6746;50.892;4.064;2023-03-14T05:49:28;10.20;99.90
13354;DHT22;6746;50.892;4.064;2023-03-14T05:52:16;10.20;99.90
13354;DHT22;6746;50.892;4.064;2023-03-14T05:54:59;10.10;99.90
13354;DHT22;6746;50.892;4.064;2023-03-14T05:57:38;10.10;99.90
13354;DHT22;6746;50.892;4.064;2023-03-14T06:00:26;10.10;99.90
13354;DHT22;6746;50.892;4.064;2023-03-14T06:03:14;10.10;99.90
13354;DHT22;6746;50.892;4.064;2023-03-14T06:06:02;10.00;99.90
13354;DHT22;6746;50.892;4.064;2023-03-14T06:08:46;10.00;99.90
13354;DHT22;6746;50.892;4.064;2023-03-14T06:11:24;10.00;99.90
13354;DHT22;6746;50.892;4.064;2023-03-14T06:13:56;10.00;99.90
13354;DHT22;6746;50.892;4.064;2023-03-14T06:16:35;10.00;99.90
13354;DHT22;6746;50.892;4.064;2023-03-14T06:19:23;9.90;99.90
13354;DHT22;6746;50.892;4.064;2023-03-14T06:22:09;9.90;99.90
13354;DHT22;6746;50.892;4.064;2023-03-14T06:24:43;9.70;99.90
13354;DHT22;6746;50.892;4.064;2023-03-14T06:27:15;9.20;99.90
13354;DHT22;6746;50.892;4.064;2023-03-14T06:29:44;9.00;99.90
13354;DHT22;6746;50.892;4.064;2023-03-14T06:32:22;8.80;99.90
13354;DHT22;6746;50.892;4.064;2023-03-14T06:35:00;8.80;99.90
13354;DHT22;6746;50.892;4.064;2023-03-14T06:37:38;8.60;99.90
13354;DHT22;6746;50.892;4.064;2023-03-14T06:40:16;8.50;99.90
13354;DHT22;6746;50.892;4.064;2023-03-14T06:42:48;8.50;99.90
13354;DHT22;6746;50.892;4.064;2023-03-14T06:45:26;8.40;99.90
13354;DHT22;6746;50.892;4.064;2023-03-14T06:48:04;8.20;99.90
13354;DHT22;6746;50.892;4.064;2023-03-14T06:50:41;8.10;99.90
13354;DHT22;6746;50.892;4.064;2023-03-14T06:53:09;7.90;99.90
13354;DHT22;6746;50.892;4.064;2023-03-14T06:55:50;7.80;99.90
13354;DHT22;6746;50.892;4.064;2023-03-14T06:58:28;7.70;99.90
13354;DHT22;6746;50.892;4.064;2023-03-14T07:01:11;7.70;99.90
13354;DHT22;6746;50.892;4.064;2023-03-14T07:03:45;7.70;99.90
13354;DHT22;6746;50.892;4.064;2023-03-14T07:06:23;7.70;99.90
13354;DHT22;6746;50.892;4.064;2023-03-14T07:09:11;7.70;99.90
13354;DHT22;6746;50.892;4.064;2023-03-14T07:11:49;7.70;99.90
13354;DHT22;6746;50.892;4.064;2023-03-14T07:14:23;7.70;99.90
13354;DHT22;6746;50.892;4.064;2023-03-14T07:16:51;7.60;99.90
13354;DHT22;6746;50.892;4.064;2023-03-14T07:19:30;7.60;99.90
13354;DHT22;6746;50.892;4.064;2023-03-14T07:22:08;7.70;99.90
13354;DHT22;6746;50.892;4.064;2023-03-14T07:24:47;7.60;99.90
13354;DHT22;6746;50.892;4.064;2023-03-14T07:27:25;7.60;99.90
13354;DHT22;6746;50.892;4.064;2023-03-14T07:30:03;7.60;99.90
13354;DHT22;6746;50.892;4.064;2023-03-14T07:32:34;7.70;99.90
13354;DHT22;6746;50.892;4.064;2023-03-14T07:35:03;7.70;99.90
13354;DHT22;6746;50.892;4.064;2023-03-14T07:37:38;7.70;99.90
13354;DHT22;6746;50.892;4.064;2023-03-14T07:40:07;7.70;99.90
13354;DHT22;6746;50.892;4.064;2023-03-14T07:42:45;7.70;99.90
13354;DHT22;6746;50.892;4.064;2023-03-14T07:45:23;7.70;99.90
13354;DHT22;6746;50.892;4.064;2023-03-14T07:47:51;7.70;99.90
13354;DHT22;6746;50.892;4.064;2023-03-14T07:50:20;7.70;99.90
13354;DHT22;6746;50.892;4.064;2023-03-14T07:52:53;7.70;99.90
13354;DHT22;6746;50.892;4.064;2023-03-14T07:55:21;7.80;99.90
13354;DHT22;6746;50.892;4.064;2023-03-14T07:58:00;7.80;99.90
13354;DHT22;6746;50.892;4.064;2023-03-14T08:00:38;7.80;99.90
13354;DHT22;6746;50.892;4.064;2023-03-14T08:03:11;7.80;99.90
13354;DHT22;6746;50.892;4.064;2023-03-14T08:05:40;7.90;99.90
13354;DHT22;6746;50.892;4.064;2023-03-14T08:08:19;7.90;99.90
13354;DHT22;6746;50.892;4.064;2023-03-14T08:11:02;7.90;99.90
13354;DHT22;6746;50.892;4.064;2023-03-14T08:13:36;7.90;99.90
13354;DHT22;6746;50.892;4.064;2023-03-14T08:16:23;7.90;99.90
13354;DHT22;6746;50.892;4.064;2023-03-14T08:19:02;7.80;99.90
13354;DHT22;6746;50.892;4.064;2023-03-14T08:21:43;7.70;99.90
13354;DHT22;6746;50.892;4.064;2023-03-14T08:24:19;7.60;99.90
13354;DHT22;6746;50.892;4.064;2023-03-14T08:26:47;7.60;99.90
13354;DHT22;6746;50.892;4.064;2023-03-14T08:29:16;7.40;99.90
13354;DHT22;6746;50.892;4.064;2023-03-14T08:31:48;7.40;99.90
13354;DHT22;6746;50.892;4.064;2023-03-14T08:34:17;7.40;99.90
13354;DHT22;6746;50.892;4.064;2023-03-14T08:36:52;7.40;99.90
13354;DHT22;6746;50.892;4.064;2023-03-14T08:39:21;7.30;99.90
13354;DHT22;6746;50.892;4.064;2023-03-14T08:41:55;7.20;99.90
13354;DHT22;6746;50.892;4.064;2023-03-14T08:44:24;7.30;99.90
13354;DHT22;6746;50.892;4.064;2023-03-14T08:47:02;7.30;99.90
13354;DHT22;6746;50.892;4.064;2023-03-14T08:49:40;7.40;99.90
13354;DHT22;6746;50.892;4.064;2023-03-14T08:52:21;7.40;99.90
13354;DHT22;6746;50.892;4.064;2023-03-14T08:54:52;7.40;99.90
13354;DHT22;6746;50.892;4.064;2023-03-14T08:57:25;7.30;99.90
13354;DHT22;6746;50.892;4.064;2023-03-14T08:59:58;7.30;99.90
13354;DHT22;6746;50.892;4.064;2023-03-14T09:02:27;7.20;99.90
13354;DHT22;6746;50.892;4.064;2023-03-14T09:05:06;7.20;99.90
13354;DHT22;6746;50.892;4.064;2023-03-14T09:07:44;7.30;99.90
13354;DHT22;6746;50.892;4.064;2023-03-14T09:10:22;7.40;99.90
13354;DHT22;6746;50.892;4.064;2023-03-14T09:13:01;7.40;99.90
13354;DHT22;6746;50.892;4.064;2023-03-14T09:15:39;7.50;99.90
13354;DHT22;6746;50.892;4.064;2023-03-14T09:18:20;7.50;99.90
13354;DHT22;6746;50.892;4.064;2023-03-14T09:20:58;7.50;99.90
13354;DHT22;6746;50.892;4.064;2023-03-14T09:23:37;7.50;99.90
13354;DHT22;6746;50.892;4.064;2023-03-14T09:26:11;7.50;99.90
13354;DHT22;6746;50.892;4.064;2023-03-14T09:28:40;7.50;99.90
13354;DHT22;6746;50.892;4.064;2023-03-14T09:31:14;7.60;99.90
13354;DHT22;6746;50.892;4.064;2023-03-14T09:33:42;7.50;99.90
13354;DHT22;6746;50.892;4.064;2023-03-14T09:36:16;7.50;99.90
13354;DHT22;6746;50.892;4.064;2023-03-14T09:39:01;7.40;99.90
13354;DHT22;6746;50.892;4.064;2023-03-14T09:41:41;7.50;99.90
13354;DHT22;6746;50.892;4.064;2023-03-14T09:44:15;7.50;99.90
13354;DHT22;6746;50.892;4.064;2023-03-14T09:46:43;7.50;99.90
13354;DHT22;6746;50.892;4.064;2023-03-14T09:52:06;7.60;99.90
13354;DHT22;6746;50.892;4.064;2023-03-14T09:54:43;7.50;99.90
13354;DHT22;6746;50.892;4.064;2023-03-14T09:57:21;7.80;99.90
13354;DHT22;6746;50.892;4.064;2023-03-14T10:00:00;7.80;99.90
13354;DHT22;6746;50.892;4.064;2023-03-14T10:03:00;7.80;99.90
13354;DHT22;6746;50.892;4.064;2023-03-14T10:05:23;8.00;99.90
13354;DHT22;6746;50.892;4.064;2023-03-14T10:08:01;7.90;99.90
13354;DHT22;6746;50.892;4.064;2023-03-14T10:10:40;7.80;99.90
13354;DHT22;6746;50.892;4.064;2023-03-14T10:13:18;7.80;99.90
13354;DHT22;6746;50.892;4.064;2023-03-14T10:16:04;7.70;99.90
13354;DHT22;6746;50.892;4.064;2023-03-14T10:18:45;7.60;99.90
13354;DHT22;6746;50.892;4.064;2023-03-14T10:21:26;7.60;99.90
13354;DHT22;6746;50.892;4.064;2023-03-14T10:24:10;7.50;99.90
13354;DHT22;6746;50.892;4.064;2023-03-14T10:26:52;7.50;99.90
13354;DHT22;6746;50.892;4.064;2023-03-14T10:29:34;7.40;99.90
13354;DHT22;6746;50.892;4.064;2023-03-14T10:32:18;7.50;99.90
13354;DHT22;6746;50.892;4.064;2023-03-14T10:35:04;7.40;99.90
13354;DHT22;6746;50.892;4.064;2023-03-14T10:37:56;7.40;99.90
13354;DHT22;6746;50.892;4.064;2023-03-14T10:40:40;7.50;99.90
13354;DHT22;6746;50.892;4.064;2023-03-14T10:43:03;7.50;99.90
13354;DHT22;6746;50.892;4.064;2023-03-14T10:45:40;7.60;99.90
13354;DHT22;6746;50.892;4.064;2023-03-14T10:48:19;7.50;99.90
13354;DHT22;6746;50.892;4.064;2023-03-14T10:53:46;7.20;99.90
13354;DHT22;6746;50.892;4.064;2023-03-14T10:56:20;7.10;99.90
13354;DHT22;6746;50.892;4.064;2023-03-14T10:58:58;7.00;99.90
13354;DHT22;6746;50.892;4.064;2023-03-14T11:01:43;6.80;99.90
13354;DHT22;6746;50.892;4.064;2023-03-14T11:04:13;6.70;99.90
13354;DHT22;6746;50.892;4.064;2023-03-14T11:09:58;6.50;99.90
13354;DHT22;6746;50.892;4.064;2023-03-14T11:13:12;6.50;99.90
13354;DHT22;6746;50.892;4.064;2023-03-14T11:24:08;6.50;99.90
13354;DHT22;6746;50.892;4.064;2023-03-14T11:26:59;6.40;99.90
13354;DHT22;6746;50.892;4.064;2023-03-14T11:29:51;6.40;99.90
13354;DHT22;6746;50.892;4.064;2023-03-14T11:32:40;6.30;99.90
13354;DHT22;6746;50.892;4.064;2023-03-14T11:35:24;6.20;99.90
13354;DHT22;6746;50.892;4.064;2023-03-14T11:37:51;6.30;99.90
13354;DHT22;6746;50.892;4.064;2023-03-14T11:40:38;6.20;99.90
13354;DHT22;6746;50.892;4.064;2023-03-14T11:43:29;6.30;99.90
13354;DHT22;6746;50.892;4.064;2023-03-14T11:46:34;6.30;99.90
13354;DHT22;6746;50.892;4.064;2023-03-14T11:52:36;6.50;99.90
13354;DHT22;6746;50.892;4.064;2023-03-14T11:55:34;6.70;99.90
13354;DHT22;6746;50.892;4.064;2023-03-14T11:58:27;8.00;99.90
13354;DHT22;6746;50.892;4.064;2023-03-14T12:01:14;6.80;99.90
13354;DHT22;6746;50.892;4.064;2023-03-14T12:03:55;6.70;99.90
13354;DHT22;6746;50.892;4.064;2023-03-14T12:06:53;6.80;99.90
13354;DHT22;6746;50.892;4.064;2023-03-14T12:09:31;6.80;99.90
13354;DHT22;6746;50.892;4.064;2023-03-14T12:12:11;6.80;99.90
13354;DHT22;6746;50.892;4.064;2023-03-14T12:15:00;6.70;99.90
13354;DHT22;6746;50.892;4.064;2023-03-14T12:17:42;6.60;99.90
13354;DHT22;6746;50.892;4.064;2023-03-14T12:20:18;6.60;99.90
13354;DHT22;6746;50.892;4.064;2023-03-14T12:22:47;6.50;99.90
13354;DHT22;6746;50.892;4.064;2023-03-14T12:25:16;6.50;99.90
13354;DHT22;6746;50.892;4.064;2023-03-14T12:30:35;6.60;99.90
13354;DHT22;6746;50.892;4.064;2023-03-14T12:33:20;6.60;99.90
13354;DHT22;6746;50.892;4.064;2023-03-14T12:35:57;6.50;99.90
13354;DHT22;6746;50.892;4.064;2023-03-14T12:38:43;6.60;99.90
13354;DHT22;6746;50.892;4.064;2023-03-14T12:41:44;6.70;99.90
13354;DHT22;6746;50.892;4.064;2023-03-14T12:50:00;6.90;99.90
13354;DHT22;6746;50.892;4.064;2023-03-14T12:52:41;6.90;99.90
13354;DHT22;6746;50.892;4.064;2023-03-14T12:55:20;6.90;99.90
13354;DHT22;6746;50.892;4.064;2023-03-14T12:57:55;6.80;99.90
13354;DHT22;6746;50.892;4.064;2023-03-14T13:00:31;6.70;99.90
13354;DHT22;6746;50.892;4.064;2023-03-14T13:03:12;6.80;99.90
13354;DHT22;6746;50.892;4.064;2023-03-14T13:05:54;6.80;99.90
13354;DHT22;6746;50.892;4.064;2023-03-14T13:08:41;6.70;99.90
13354;DHT22;6746;50.892;4.064;2023-03-14T13:11:13;6.70;99.90
13354;DHT22;6746;50.892;4.064;2023-03-14T13:13:49;6.70;99.90
13354;DHT22;6746;50.892;4.064;2023-03-14T13:16:27;6.70;99.90
13354;DHT22;6746;50.892;4.064;2023-03-14T13:19:14;6.80;99.90
13354;DHT22;6746;50.892;4.064;2023-03-14T13:21:42;6.80;99.90
13354;DHT22;6746;50.892;4.064;2023-03-14T13:24:24;6.90;99.90
13354;DHT22;6746;50.892;4.064;2023-03-14T13:27:01;7.00;99.90
13354;DHT22;6746;50.892;4.064;2023-03-14T13:29:30;6.80;99.90
13354;DHT22;6746;50.892;4.064;2023-03-14T13:32:17;6.70;99.90
13354;DHT22;6746;50.892;4.064;2023-03-14T13:34:44;6.60;99.90
13354;DHT22;6746;50.892;4.064;2023-03-14T13:37:24;6.10;99.90
13354;DHT22;6746;50.892;4.064;2023-03-14T13:40:01;5.70;99.90
13354;DHT22;6746;50.892;4.064;2023-03-14T13:42:32;5.30;99.90
13354;DHT22;6746;50.892;4.064;2023-03-14T13:45:01;5.20;99.90
13354;DHT22;6746;50.892;4.064;2023-03-14T13:47:39;5.30;99.90
13354;DHT22;6746;50.892;4.064;2023-03-14T13:50:18;5.40;99.90
13354;DHT22;6746;50.892;4.064;2023-03-14T13:52:56;5.50;99.90
13354;DHT22;6746;50.892;4.064;2023-03-14T13:55:35;5.70;99.90
13354;DHT22;6746;50.892;4.064;2023-03-14T13:58:20;5.80;99.90
13354;DHT22;6746;50.892;4.064;2023-03-14T14:01:02;5.80;99.90
13354;DHT22;6746;50.892;4.064;2023-03-14T14:03:46;5.90;99.90
13354;DHT22;6746;50.892;4.064;2023-03-14T14:06:22;6.00;99.90
13354;DHT22;6746;50.892;4.064;2023-03-14T14:09:08;6.10;99.90
13354;DHT22;6746;50.892;4.064;2023-03-14T14:11:41;6.20;99.90
13354;DHT22;6746;50.892;4.064;2023-03-14T14:14:13;6.10;99.90
13354;DHT22;6746;50.892;4.064;2023-03-14T14:16:50;6.10;99.90
13354;DHT22;6746;50.892;4.064;2023-03-14T14:19:34;6.00;99.90
13354;DHT22;6746;50.892;4.064;2023-03-14T14:22:10;5.90;99.90
13354;DHT22;6746;50.892;4.064;2023-03-14T14:24:38;5.90;99.90
13354;DHT22;6746;50.892;4.064;2023-03-14T14:27:19;5.80;99.90
13354;DHT22;6746;50.892;4.064;2023-03-14T14:29:44;5.80;99.90
13354;DHT22;6746;50.892;4.064;2023-03-14T14:32:20;5.50;99.90
13354;DHT22;6746;50.892;4.064;2023-03-14T14:35:00;5.20;99.90
13354;DHT22;6746;50.892;4.064;2023-03-14T14:37:42;5.10;99.90
13354;DHT22;6746;50.892;4.064;2023-03-14T14:40:23;5.00;99.90
13354;DHT22;6746;50.892;4.064;2023-03-14T14:42:51;5.00;99.90
13354;DHT22;6746;50.892;4.064;2023-03-14T14:45:19;4.90;99.90
13354;DHT22;6746;50.892;4.064;2023-03-14T14:50:34;4.80;99.90
13354;DHT22;6746;50.892;4.064;2023-03-14T14:53:28;4.80;99.90
13354;DHT22;6746;50.892;4.064;2023-03-14T14:56:27;4.80;99.90
13354;DHT22;6746;50.892;4.064;2023-03-14T14:59:06;4.80;99.90
13354;DHT22;6746;50.892;4.064;2023-03-14T15:01:39;5.00;99.90
13354;DHT22;6746;50.892;4.064;2023-03-14T15:04:13;5.00;99.90
13354;DHT22;6746;50.892;4.064;2023-03-14T15:06:50;5.10;99.90
13354;DHT22;6746;50.892;4.064;2023-03-14T15:09:19;5.30;99.90
13354;DHT22;6746;50.892;4.064;2023-03-14T15:11:57;5.50;99.90
13354;DHT22;6746;50.892;4.064;2023-03-14T15:14:45;5.50;99.90
13354;DHT22;6746;50.892;4.064;2023-03-14T15:17:23;5.50;99.90
13354;DHT22;6746;50.892;4.064;2023-03-14T15:20:05;5.50;99.90
13354;DHT22;6746;50.892;4.064;2023-03-14T15:22:42;5.50;99.90
13354;DHT22;6746;50.892;4.064;2023-03-14T15:25:21;5.50;99.90
13354;DHT22;6746;50.892;4.064;2023-03-14T15:27:49;5.50;99.90
13354;DHT22;6746;50.892;4.064;2023-03-14T15:30:18;5.40;99.90
13354;DHT22;6746;50.892;4.064;2023-03-14T15:32:47;5.30;99.90
13354;DHT22;6746;50.892;4.064;2023-03-14T15:35:26;5.30;99.90
13354;DHT22;6746;50.892;4.064;2023-03-14T15:38:04;5.40;99.90
13354;DHT22;6746;50.892;4.064;2023-03-14T15:40:42;5.50;99.90
13354;DHT22;6746;50.892;4.064;2023-03-14T15:43:21;5.50;99.90
13354;DHT22;6746;50.892;4.064;2023-03-14T15:45:59;5.60;99.90
13354;DHT22;6746;50.892;4.064;2023-03-14T15:51:31;5.50;99.90
13354;DHT22;6746;50.892;4.064;2023-03-14T15:54:09;5.40;99.90
13354;DHT22;6746;50.892;4.064;2023-03-14T15:56:47;5.40;99.90
13354;DHT22;6746;50.892;4.064;2023-03-14T15:59:28;5.50;99.90
13354;DHT22;6746;50.892;4.064;2023-03-14T16:01:57;5.50;99.90
13354;DHT22;6746;50.892;4.064;2023-03-14T16:04:31;5.60;99.90
13354;DHT22;6746;50.892;4.064;2023-03-14T16:07:00;5.50;99.90
13354;DHT22;6746;50.892;4.064;2023-03-14T16:09:32;5.50;99.90
13354;DHT22;6746;50.892;4.064;2023-03-14T16:12:01;5.50;99.90
13354;DHT22;6746;50.892;4.064;2023-03-14T16:14:39;5.60;99.90
13354;DHT22;6746;50.892;4.064;2023-03-14T16:17:18;5.60;99.90
13354;DHT22;6746;50.892;4.064;2023-03-14T16:19:49;5.60;99.90
13354;DHT22;6746;50.892;4.064;2023-03-14T16:22:18;5.70;99.90
13354;DHT22;6746;50.892;4.064;2023-03-14T16:24:55;5.70;99.90
13354;DHT22;6746;50.892;4.064;2023-03-14T16:27:23;5.70;99.90
13354;DHT22;6746;50.892;4.064;2023-03-14T16:30:02;5.80;99.90
13354;DHT22;6746;50.892;4.064;2023-03-14T16:32:35;5.90;99.90
13354;DHT22;6746;50.892;4.064;2023-03-14T16:35:07;6.00;99.90
13354;DHT22;6746;50.892;4.064;2023-03-14T16:37:45;6.10;99.90
13354;DHT22;6746;50.892;4.064;2023-03-14T16:40:23;6.10;99.90
13354;DHT22;6746;50.892;4.064;2023-03-14T16:42:52;6.20;99.90
13354;DHT22;6746;50.892;4.064;2023-03-14T16:45:30;6.20;99.90
13354;DHT22;6746;50.892;4.064;2023-03-14T16:48:08;6.20;99.90
13354;DHT22;6746;50.892;4.064;2023-03-14T16:50:48;6.20;99.90
13354;DHT22;6746;50.892;4.064;2023-03-14T16:53:25;6.20;99.90
13354;DHT22;6746;50.892;4.064;2023-03-14T16:56:03;6.20;99.90
13354;DHT22;6746;50.892;4.064;2023-03-14T16:58:31;6.10;99.90
13354;DHT22;6746;50.892;4.064;2023-03-14T17:01:03;6.10;99.90
13354;DHT22;6746;50.892;4.064;2023-03-14T17:03:40;6.10;99.90
13354;DHT22;6746;50.892;4.064;2023-03-14T17:06:18;6.00;99.90
13354;DHT22;6746;50.892;4.064;2023-03-14T17:08:58;6.10;99.90
13354;DHT22;6746;50.892;4.064;2023-03-14T17:11:36;6.00;99.90
13354;DHT22;6746;50.892;4.064;2023-03-14T17:14:14;6.00;99.90
13354;DHT22;6746;50.892;4.064;2023-03-14T17:16:52;5.90;99.90
13354;DHT22;6746;50.892;4.064;2023-03-14T17:19:20;5.90;99.90
13354;DHT22;6746;50.892;4.064;2023-03-14T17:21:49;5.80;99.90
13354;DHT22;6746;50.892;4.064;2023-03-14T17:24:23;5.80;99.90
13354;DHT22;6746;50.892;4.064;2023-03-14T17:26:53;5.80;99.90
13354;DHT22;6746;50.892;4.064;2023-03-14T17:29:22;5.80;99.90
13354;DHT22;6746;50.892;4.064;2023-03-14T17:31:51;5.80;99.90
13354;DHT22;6746;50.892;4.064;2023-03-14T17:34:29;5.80;99.90
13354;DHT22;6746;50.892;4.064;2023-03-14T17:37:07;5.80;99.90
13354;DHT22;6746;50.892;4.064;2023-03-14T17:39:36;5.70;99.90
13354;DHT22;6746;50.892;4.064;2023-03-14T17:42:05;5.70;99.90
13354;DHT22;6746;50.892;4.064;2023-03-14T17:44:39;5.60;99.90
13354;DHT22;6746;50.892;4.064;2023-03-14T17:47:09;5.60;99.90
13354;DHT22;6746;50.892;4.064;2023-03-14T17:49:49;5.60;99.90
13354;DHT22;6746;50.892;4.064;2023-03-14T17:52:14;5.50;99.90